createdAt,value
2019-03-27T00:00:53.250Z,0.00
2019-03-27T00:01:53.257Z,0.00
2019-03-27T00:02:53.252Z,0.00
2019-03-27T00:03:53.221Z,0.00
2019-03-27T00:04:53.217Z,0.00
2019-03-27T00:05:53.212Z,0.00
2019-03-27T00:06:53.193Z,0.00
2019-03-27T00:07:53.200Z,0.00
2019-03-27T00:08:53.216Z,0.00
2019-03-27T00:09:53.191Z,0.00
2019-03-27T00:10:53.168Z,0.00
2019-03-27T00:11:53.131Z,0.00
2019-03-27T00:12:53.144Z,0.00
2019-03-27T00:13:53.163Z,0.00
2019-03-27T00:14:53.158Z,0.00
2019-03-27T00:15:53.118Z,0.00
2019-03-27T00:16:53.082Z,0.00
2019-03-27T00:17:53.082Z,0.00
2019-03-27T00:18:53.084Z,0.00
2019-03-27T00:19:53.063Z,0.00
2019-03-27T00:20:53.039Z,0.00
2019-03-27T00:21:53.029Z,0.00
2019-03-27T00:22:53.011Z,0.00
2019-03-27T00:23:53.038Z,0.00
2019-03-27T00:24:53.041Z,0.00
2019-03-27T00:25:53.001Z,0.00
2019-03-27T00:26:52.989Z,0.00
2019-03-27T00:27:52.961Z,0.00
2019-03-27T00:28:53.005Z,0.00
2019-03-27T00:29:52.938Z,0.00
2019-03-27T00:30:52.926Z,0.00
2019-03-27T00:31:52.916Z,0.00
2019-03-27T00:32:52.905Z,0.00
2019-03-27T00:33:52.949Z,0.00
2019-03-27T00:34:52.906Z,0.00
2019-03-27T00:35:52.918Z,0.00
2019-03-27T00:36:52.909Z,0.00
2019-03-27T00:37:52.902Z,0.00
2019-03-27T00:38:52.889Z,0.00
2019-03-27T00:39:52.861Z,0.00
2019-03-27T00:40:52.842Z,0.00
2019-03-27T00:41:52.848Z,0.00
2019-03-27T00:42:52.822Z,0.00
2019-03-27T00:43:52.825Z,0.00
2019-03-27T00:44:52.773Z,0.00
2019-03-27T00:45:52.792Z,0.00
2019-03-27T00:46:52.770Z,0.00
2019-03-27T00:47:52.765Z,0.00
2019-03-27T00:48:52.826Z,0.00
2019-03-27T00:49:52.719Z,0.00
2019-03-27T00:50:52.712Z,0.00
2019-03-27T00:51:52.746Z,0.00
2019-03-27T00:52:52.747Z,0.00
2019-03-27T00:53:52.700Z,0.00
2019-03-27T00:54:52.749Z,0.00
2019-03-27T00:55:52.699Z,0.00
2019-03-27T00:56:52.688Z,0.00
2019-03-27T00:57:52.642Z,0.00
2019-03-27T00:58:52.671Z,0.00
2019-03-27T00:59:52.608Z,0.00
2019-03-27T01:00:52.610Z,0.00
2019-03-27T01:01:52.648Z,0.00
2019-03-27T01:02:52.591Z,0.00
2019-03-27T01:03:52.597Z,0.00
2019-03-27T01:04:52.577Z,0.00
2019-03-27T01:05:52.545Z,0.00
2019-03-27T01:06:52.588Z,0.00
2019-03-27T01:07:52.554Z,0.00
2019-03-27T01:08:52.581Z,0.00
2019-03-27T01:09:52.536Z,0.00
2019-03-27T01:10:52.492Z,0.00
2019-03-27T01:11:52.486Z,0.00
2019-03-27T01:12:52.470Z,0.00
2019-03-27T01:13:52.490Z,0.00
2019-03-27T01:14:52.456Z,0.00
2019-03-27T01:15:52.441Z,0.00
2019-03-27T01:16:52.452Z,0.00
2019-03-27T01:17:52.419Z,0.00
2019-03-27T01:18:52.474Z,0.00
2019-03-27T01:19:52.437Z,0.00
2019-03-27T01:20:52.463Z,0.00
2019-03-27T01:21:52.378Z,0.00
2019-03-27T01:22:52.393Z,0.00
2019-03-27T01:23:52.399Z,0.00
2019-03-27T01:24:52.368Z,0.00
2019-03-27T01:25:52.361Z,0.00
2019-03-27T01:26:52.386Z,0.00
2019-03-27T01:27:52.342Z,0.00
2019-03-27T01:28:52.362Z,0.00
2019-03-27T01:29:52.310Z,0.00
2019-03-27T01:30:52.307Z,0.00
2019-03-27T01:31:52.274Z,0.00
2019-03-27T01:32:52.293Z,0.00
2019-03-27T01:33:52.265Z,0.00
2019-03-27T01:34:52.301Z,0.00
2019-03-27T01:35:52.249Z,0.00
2019-03-27T01:36:52.234Z,0.00
2019-03-27T01:37:52.218Z,0.00
2019-03-27T01:38:52.401Z,0.00
2019-03-27T01:39:52.212Z,0.00
2019-03-27T01:40:52.260Z,0.00
2019-03-27T01:41:52.159Z,0.00
2019-03-27T01:42:52.151Z,0.00
2019-03-27T01:43:52.176Z,0.00
2019-03-27T01:44:52.186Z,0.00
2019-03-27T01:45:53.471Z,0.00
2019-03-27T01:46:52.103Z,0.00
2019-03-27T01:47:52.135Z,0.00
2019-03-27T01:48:52.103Z,0.00
2019-03-27T01:49:52.349Z,0.00
2019-03-27T01:50:52.086Z,0.00
2019-03-27T01:51:52.073Z,0.00
2019-03-27T01:52:52.036Z,0.00
2019-03-27T01:53:52.061Z,0.00
2019-03-27T01:54:52.036Z,0.00
2019-03-27T01:55:52.057Z,0.00
2019-03-27T01:56:52.026Z,0.00
2019-03-27T01:57:52.008Z,0.00
2019-03-27T01:58:52.025Z,0.00
2019-03-27T01:59:52.033Z,0.00
2019-03-27T02:00:51.976Z,0.00
2019-03-27T02:01:52.001Z,0.00
2019-03-27T02:02:51.940Z,0.00
2019-03-27T02:03:51.945Z,0.00
2019-03-27T02:04:51.957Z,0.00
2019-03-27T02:05:51.927Z,0.00
2019-03-27T02:06:51.887Z,0.00
2019-03-27T02:07:51.924Z,0.00
2019-03-27T02:08:51.963Z,0.00
2019-03-27T02:09:51.895Z,0.00
2019-03-27T02:10:51.908Z,0.00
2019-03-27T02:11:51.859Z,0.00
2019-03-27T02:12:51.850Z,0.00
2019-03-27T02:13:51.829Z,0.00
2019-03-27T02:14:51.851Z,0.00
2019-03-27T02:15:51.826Z,0.00
2019-03-27T02:16:51.803Z,0.00
2019-03-27T02:17:51.792Z,0.00
2019-03-27T02:18:51.851Z,0.00
2019-03-27T02:19:51.795Z,0.00
2019-03-27T02:20:51.756Z,0.00
2019-03-27T02:21:51.801Z,0.00
2019-03-27T02:22:51.760Z,0.00
2019-03-27T02:23:51.732Z,0.00
2019-03-27T02:24:51.785Z,0.00
2019-03-27T02:25:51.743Z,0.00
2019-03-27T02:26:51.709Z,0.00
2019-03-27T02:27:51.756Z,0.00
2019-03-27T02:28:51.701Z,0.00
2019-03-27T02:29:51.737Z,0.00
2019-03-27T02:30:51.659Z,0.00
2019-03-27T02:31:51.636Z,0.00
2019-03-27T02:32:51.627Z,0.00
2019-03-27T02:33:51.637Z,0.00
2019-03-27T02:34:51.649Z,0.00
2019-03-27T02:35:51.582Z,0.00
2019-03-27T02:36:51.576Z,0.00
2019-03-27T02:37:51.556Z,0.00
2019-03-27T02:38:51.562Z,0.00
2019-03-27T02:39:51.582Z,0.00
2019-03-27T02:40:51.546Z,0.00
2019-03-27T02:41:51.550Z,0.00
2019-03-27T02:42:51.526Z,0.00
2019-03-27T02:43:51.538Z,0.00
2019-03-27T02:44:51.495Z,0.00
2019-03-27T02:45:51.536Z,0.00
2019-03-27T02:46:51.482Z,0.00
2019-03-27T02:47:51.484Z,0.00
2019-03-27T02:48:51.460Z,0.00
2019-03-27T02:49:51.444Z,0.00
2019-03-27T02:50:51.433Z,0.00
2019-03-27T02:51:51.395Z,0.00
2019-03-27T02:52:51.389Z,0.00
2019-03-27T02:53:51.382Z,0.00
2019-03-27T02:54:51.390Z,0.00
2019-03-27T02:55:51.347Z,0.00
2019-03-27T02:56:51.363Z,0.00
2019-03-27T02:57:51.378Z,0.00
2019-03-27T02:58:51.365Z,0.00
2019-03-27T02:59:51.386Z,0.00
2019-03-27T03:09:57.964Z,0.00
2019-03-27T03:10:57.901Z,0.00
2019-03-27T03:11:57.883Z,0.00
2019-03-27T03:12:57.869Z,0.00
2019-03-27T03:13:57.878Z,0.00
2019-03-27T03:14:57.890Z,0.00
2019-03-27T03:15:57.835Z,0.00
2019-03-27T03:16:57.876Z,0.00
2019-03-27T03:17:57.784Z,0.00
2019-03-27T03:18:57.799Z,0.00
2019-03-27T03:19:57.829Z,0.00
2019-03-27T03:20:57.756Z,0.00
2019-03-27T03:21:57.836Z,0.00
2019-03-27T03:22:57.721Z,0.00
2019-03-27T03:23:57.728Z,0.00
2019-03-27T03:24:57.737Z,0.00
2019-03-27T03:25:57.714Z,0.00
2019-03-27T03:26:57.707Z,0.00
2019-03-27T03:27:57.712Z,0.00
2019-03-27T03:28:57.695Z,0.00
2019-03-27T03:29:57.685Z,0.00
2019-03-27T03:30:57.707Z,0.00
2019-03-27T03:31:57.699Z,0.00
2019-03-27T03:32:57.642Z,0.00
2019-03-27T03:33:57.657Z,0.00
2019-03-27T03:34:57.584Z,0.00
2019-03-27T03:35:57.580Z,0.00
2019-03-27T03:36:57.575Z,0.00
2019-03-27T03:37:57.559Z,0.00
2019-03-27T03:38:57.639Z,0.00
2019-03-27T03:39:57.607Z,0.00
2019-03-27T03:40:57.549Z,0.00
2019-03-27T03:41:57.559Z,0.00
2019-03-27T03:42:57.535Z,0.00
2019-03-27T03:43:57.535Z,0.00
2019-03-27T03:44:57.510Z,0.00
2019-03-27T03:45:57.515Z,0.00
2019-03-27T03:47:00.193Z,0.00
2019-03-27T03:47:57.480Z,0.00
2019-03-27T03:48:57.473Z,0.00
2019-03-27T03:49:57.445Z,0.00
2019-03-27T03:50:57.416Z,0.00
2019-03-27T03:51:57.435Z,0.00
2019-03-27T03:52:57.384Z,0.00
2019-03-27T03:53:57.400Z,0.00
2019-03-27T03:54:57.398Z,0.00
2019-03-27T03:55:57.366Z,0.00
2019-03-27T03:56:57.372Z,0.00
2019-03-27T03:57:57.331Z,0.00
2019-03-27T03:58:57.326Z,0.00
2019-03-27T03:59:57.375Z,0.00
2019-03-27T04:00:57.325Z,0.00
2019-03-27T04:01:57.334Z,0.00
2019-03-27T04:02:57.300Z,0.00
2019-03-27T04:03:57.269Z,0.00
2019-03-27T04:04:57.277Z,0.00
2019-03-27T04:05:57.303Z,0.00
2019-03-27T04:06:57.359Z,0.00
2019-03-27T04:07:57.265Z,0.00
2019-03-27T04:08:57.341Z,0.00
2019-03-27T04:09:57.302Z,0.00
2019-03-27T04:10:57.207Z,0.00
2019-03-27T04:11:57.219Z,0.00
2019-03-27T04:12:57.202Z,0.00
2019-03-27T04:13:57.229Z,0.00
2019-03-27T04:14:57.213Z,0.00
2019-03-27T04:15:57.182Z,0.00
2019-03-27T04:16:57.151Z,0.00
2019-03-27T04:17:57.205Z,0.00
2019-03-27T04:18:57.096Z,0.00
2019-03-27T04:19:57.093Z,0.00
2019-03-27T04:20:57.101Z,0.00
2019-03-27T04:21:57.086Z,0.00
2019-03-27T04:22:57.067Z,0.00
2019-03-27T04:23:57.168Z,0.00
2019-03-27T04:24:57.055Z,0.00
2019-03-27T04:26:12.376Z,0.00
2019-03-27T04:26:58.024Z,0.00
2019-03-27T04:27:57.047Z,0.00
2019-03-27T04:28:56.988Z,0.00
2019-03-27T04:29:57.003Z,0.00
2019-03-27T04:30:57.033Z,0.00
2019-03-27T04:31:56.977Z,0.00
2019-03-27T04:32:56.991Z,0.00
2019-03-27T04:33:56.990Z,0.00
2019-03-27T04:34:56.941Z,0.00
2019-03-27T04:35:56.980Z,0.00
2019-03-27T04:36:56.905Z,0.00
2019-03-27T04:37:56.888Z,0.00
2019-03-27T04:38:56.907Z,0.00
2019-03-27T04:39:56.877Z,0.00
2019-03-27T04:40:56.899Z,0.00
2019-03-27T04:41:56.874Z,0.00
2019-03-27T04:42:56.841Z,0.00
2019-03-27T04:43:56.851Z,0.00
2019-03-27T04:44:56.812Z,0.00
2019-03-27T04:45:56.824Z,0.00
2019-03-27T04:46:56.818Z,0.00
2019-03-27T04:47:56.830Z,0.00
2019-03-27T04:48:56.766Z,0.00
2019-03-27T04:49:56.756Z,0.00
2019-03-27T04:50:56.767Z,0.00
2019-03-27T04:51:56.752Z,0.00
2019-03-27T04:52:56.722Z,0.00
2019-03-27T04:53:56.731Z,0.00
2019-03-27T04:54:56.712Z,0.00
2019-03-27T04:55:56.722Z,0.00
2019-03-27T04:56:56.683Z,0.00
2019-03-27T04:57:56.669Z,0.00
2019-03-27T04:58:56.696Z,0.00
2019-03-27T04:59:56.690Z,0.00
2019-03-27T05:00:56.689Z,0.00
2019-03-27T05:01:56.656Z,0.00
2019-03-27T05:02:56.630Z,0.00
2019-03-27T05:03:56.622Z,0.00
2019-03-27T05:04:56.609Z,0.00
2019-03-27T05:05:56.657Z,0.00
2019-03-27T05:06:56.575Z,0.00
2019-03-27T05:07:56.568Z,0.00
2019-03-27T05:08:56.547Z,0.00
2019-03-27T05:09:56.558Z,0.00
2019-03-27T05:10:56.558Z,0.00
2019-03-27T05:11:56.514Z,0.00
2019-03-27T05:12:56.524Z,0.00
2019-03-27T05:13:56.525Z,0.00
2019-03-27T05:14:56.506Z,0.00
2019-03-27T05:15:56.526Z,0.00
2019-03-27T05:16:56.500Z,0.00
2019-03-27T05:17:56.466Z,0.00
2019-03-27T05:18:56.477Z,0.00
2019-03-27T05:19:56.453Z,0.00
2019-03-27T05:20:56.458Z,0.00
2019-03-27T05:21:56.424Z,0.00
2019-03-27T05:22:56.438Z,0.00
2019-03-27T05:23:56.457Z,0.00
2019-03-27T05:24:56.402Z,0.00
2019-03-27T05:25:56.419Z,0.00
2019-03-27T05:26:56.373Z,0.00
2019-03-27T05:27:56.361Z,0.00
2019-03-27T05:28:56.347Z,0.00
2019-03-27T05:29:56.331Z,0.00
2019-03-27T05:30:56.369Z,0.00
2019-03-27T05:31:56.314Z,0.00
2019-03-27T05:32:56.287Z,0.00
2019-03-27T05:33:56.314Z,0.00
2019-03-27T05:34:56.277Z,0.00
2019-03-27T05:35:56.298Z,0.00
2019-03-27T05:36:56.289Z,0.00
2019-03-27T05:37:56.284Z,0.00
2019-03-27T05:38:56.241Z,0.00
2019-03-27T05:39:56.219Z,0.00
2019-03-27T05:40:56.257Z,0.00
2019-03-27T05:41:56.201Z,0.00
2019-03-27T05:43:00.962Z,5.62
2019-03-27T05:43:57.211Z,5.62
2019-03-27T05:44:56.173Z,5.62
2019-03-27T05:45:56.162Z,5.62
2019-03-27T05:46:56.159Z,5.62
2019-03-27T05:47:59.827Z,5.62
2019-03-27T05:48:56.134Z,5.62
2019-03-27T05:49:56.156Z,5.62
2019-03-27T05:50:56.194Z,5.62
2019-03-27T05:51:56.136Z,5.62
2019-03-27T05:52:56.185Z,5.62
2019-03-27T05:53:56.050Z,5.62
2019-03-27T05:54:56.068Z,5.62
2019-03-27T05:55:56.094Z,5.62
2019-03-27T05:56:56.068Z,5.62
2019-03-27T05:57:56.059Z,5.62
2019-03-27T05:58:56.040Z,5.62
2019-03-27T05:59:56.009Z,5.62
2019-03-27T06:00:56.015Z,11.25
2019-03-27T06:01:56.029Z,11.25
2019-03-27T06:02:56.031Z,11.25
2019-03-27T06:03:55.968Z,11.25
2019-03-27T06:04:55.936Z,11.25
2019-03-27T06:05:55.933Z,11.25
2019-03-27T06:06:55.992Z,11.25
2019-03-27T06:07:55.899Z,11.25
2019-03-27T06:08:55.887Z,11.25
2019-03-27T06:09:55.875Z,11.25
2019-03-27T06:10:55.866Z,11.25
2019-03-27T06:11:55.887Z,16.88
2019-03-27T06:12:55.848Z,16.88
2019-03-27T06:13:55.881Z,16.88
2019-03-27T06:14:55.825Z,16.88
2019-03-27T06:15:55.831Z,16.88
2019-03-27T06:16:55.838Z,16.88
2019-03-27T06:17:55.883Z,16.88
2019-03-27T06:18:55.780Z,16.88
2019-03-27T06:19:55.783Z,16.88
2019-03-27T06:20:55.764Z,22.50
2019-03-27T06:21:55.834Z,16.88
2019-03-27T06:22:55.757Z,22.50
2019-03-27T06:23:55.742Z,22.50
2019-03-27T06:24:55.710Z,22.50
2019-03-27T06:25:55.709Z,22.50
2019-03-27T06:26:55.719Z,22.50
2019-03-27T06:27:55.697Z,22.50
2019-03-27T06:28:55.688Z,22.50
2019-03-27T06:29:55.688Z,28.12
2019-03-27T06:30:55.657Z,28.12
2019-03-27T06:31:55.660Z,28.12
2019-03-27T06:32:55.701Z,28.12
2019-03-27T06:33:55.642Z,28.12
2019-03-27T06:34:55.622Z,22.50
2019-03-27T06:35:55.598Z,22.50
2019-03-27T06:36:55.606Z,22.50
2019-03-27T06:37:55.592Z,22.50
2019-03-27T06:38:55.580Z,22.50
2019-03-27T06:39:55.572Z,22.50
2019-03-27T06:40:55.545Z,22.50
2019-03-27T06:41:55.569Z,16.88
2019-03-27T06:42:55.525Z,16.88
2019-03-27T06:43:55.511Z,16.88
2019-03-27T06:44:55.524Z,16.88
2019-03-27T06:45:58.243Z,16.88
2019-03-27T06:46:55.500Z,16.88
2019-03-27T06:47:55.525Z,16.88
2019-03-27T06:48:55.480Z,22.50
2019-03-27T06:49:55.460Z,22.50
2019-03-27T06:50:55.453Z,16.88
2019-03-27T06:51:55.446Z,16.88
2019-03-27T06:52:55.432Z,16.88
2019-03-27T06:53:55.430Z,22.50
2019-03-27T06:54:55.470Z,22.50
2019-03-27T06:55:55.405Z,16.88
2019-03-27T06:56:55.400Z,16.88
2019-03-27T06:57:55.438Z,16.88
2019-03-27T06:58:55.375Z,16.88
2019-03-27T06:59:55.362Z,16.88
2019-03-27T07:00:55.349Z,22.50
2019-03-27T07:01:55.401Z,22.50
2019-03-27T07:02:55.349Z,22.50
2019-03-27T07:03:55.329Z,22.50
2019-03-27T07:04:55.305Z,22.50
2019-03-27T07:05:55.312Z,22.50
2019-03-27T07:06:55.334Z,22.50
2019-03-27T07:07:55.261Z,33.75
2019-03-27T07:08:55.241Z,28.12
2019-03-27T07:09:55.274Z,28.12
2019-03-27T07:10:55.211Z,28.12
2019-03-27T07:11:55.222Z,28.12
2019-03-27T07:12:55.189Z,28.12
2019-03-27T07:13:55.189Z,22.50
2019-03-27T07:14:55.186Z,28.12
2019-03-27T07:15:55.163Z,22.50
2019-03-27T07:16:55.184Z,22.50
2019-03-27T07:17:55.134Z,28.12
2019-03-27T07:18:55.129Z,28.12
2019-03-27T07:19:55.117Z,28.12
2019-03-27T07:20:55.129Z,22.50
2019-03-27T07:21:55.142Z,22.50
2019-03-27T07:22:55.103Z,22.50
2019-03-27T07:23:55.122Z,22.50
2019-03-27T07:24:55.142Z,22.50
2019-03-27T07:25:55.147Z,22.50
2019-03-27T07:26:55.058Z,28.12
2019-03-27T07:27:55.081Z,28.12
2019-03-27T07:28:55.027Z,28.12
2019-03-27T07:29:55.034Z,28.12
2019-03-27T07:30:54.995Z,33.75
2019-03-27T07:31:55.006Z,28.12
2019-03-27T07:32:55.112Z,28.12
2019-03-27T07:33:54.992Z,28.12
2019-03-27T07:34:54.998Z,28.12
2019-03-27T07:35:54.957Z,28.12
2019-03-27T07:36:56.302Z,28.12
2019-03-27T07:37:54.946Z,33.75
2019-03-27T07:38:54.999Z,39.38
2019-03-27T07:39:54.921Z,39.38
2019-03-27T07:40:54.915Z,33.75
2019-03-27T07:41:54.907Z,39.38
2019-03-27T07:42:54.934Z,39.38
2019-03-27T07:43:54.874Z,33.75
2019-03-27T07:44:54.904Z,33.75
2019-03-27T07:45:54.852Z,28.12
2019-03-27T07:46:54.841Z,33.75
2019-03-27T07:47:54.829Z,33.75
2019-03-27T07:48:54.805Z,33.75
2019-03-27T07:49:54.807Z,39.38
2019-03-27T07:50:54.796Z,39.38
2019-03-27T07:51:54.774Z,39.38
2019-03-27T07:52:54.799Z,33.75
2019-03-27T07:53:54.747Z,33.75
2019-03-27T07:54:54.727Z,33.75
2019-03-27T07:55:54.752Z,33.75
2019-03-27T07:56:54.727Z,33.75
2019-03-27T07:57:54.727Z,39.38
2019-03-27T07:58:54.690Z,39.38
2019-03-27T07:59:54.675Z,45.00
2019-03-27T08:00:54.668Z,45.00
2019-03-27T08:01:54.686Z,45.00
2019-03-27T08:02:54.682Z,45.00
2019-03-27T08:03:54.637Z,50.62
2019-03-27T08:04:54.615Z,45.00
2019-03-27T08:05:54.614Z,50.62
2019-03-27T08:06:54.617Z,50.62
2019-03-27T08:07:54.609Z,56.25
2019-03-27T08:08:54.592Z,61.88
2019-03-27T08:09:54.559Z,67.50
2019-03-27T08:10:54.581Z,56.25
2019-03-27T08:11:54.563Z,50.62
2019-03-27T08:12:54.546Z,56.25
2019-03-27T08:13:54.521Z,50.62
2019-03-27T08:14:54.525Z,50.62
2019-03-27T08:15:54.515Z,61.88
2019-03-27T08:16:54.533Z,67.50
2019-03-27T08:17:54.498Z,50.62
2019-03-27T08:19:06.860Z,61.88
2019-03-27T08:19:55.501Z,61.88
2019-03-27T08:20:54.484Z,61.88
2019-03-27T08:21:54.429Z,50.62
2019-03-27T08:22:54.417Z,50.62
2019-03-27T08:23:54.437Z,73.12
2019-03-27T08:24:54.394Z,73.12
2019-03-27T08:25:54.378Z,73.12
2019-03-27T08:26:54.425Z,61.88
2019-03-27T08:27:54.367Z,56.25
2019-03-27T08:28:54.346Z,50.62
2019-03-27T08:29:54.402Z,50.62
2019-03-27T08:30:54.328Z,50.62
2019-03-27T08:31:54.356Z,56.25
2019-03-27T08:32:54.380Z,61.88
2019-03-27T08:33:54.292Z,56.25
2019-03-27T08:34:54.279Z,50.62
2019-03-27T08:35:54.292Z,50.62
2019-03-27T08:36:54.252Z,56.25
2019-03-27T08:37:54.294Z,73.12
2019-03-27T08:38:54.310Z,73.12
2019-03-27T08:39:54.226Z,67.50
2019-03-27T08:40:54.214Z,56.25
2019-03-27T08:41:54.226Z,50.62
2019-03-27T08:42:54.188Z,45.00
2019-03-27T08:43:54.171Z,56.25
2019-03-27T08:44:54.187Z,56.25
2019-03-27T08:45:54.173Z,56.25
2019-03-27T08:46:54.168Z,61.88
2019-03-27T08:47:54.188Z,61.88
2019-03-27T08:48:54.126Z,61.88
2019-03-27T08:49:54.112Z,67.50
2019-03-27T08:50:54.115Z,67.50
2019-03-27T08:51:54.135Z,61.88
2019-03-27T08:52:54.113Z,56.25
2019-03-27T08:53:54.094Z,56.25
2019-03-27T08:54:54.052Z,50.62
2019-03-27T08:55:54.068Z,56.25
2019-03-27T08:56:54.139Z,61.88
2019-03-27T08:57:54.021Z,56.25
2019-03-27T08:58:54.042Z,56.25
2019-03-27T08:59:54.031Z,56.25
2019-03-27T09:00:54.015Z,56.25
2019-03-27T09:01:53.980Z,50.62
2019-03-27T09:02:54.004Z,45.00
2019-03-27T09:03:53.960Z,45.00
2019-03-27T09:04:53.946Z,50.62
2019-03-27T09:05:53.951Z,50.62
2019-03-27T09:06:53.916Z,50.62
2019-03-27T09:07:53.912Z,50.62
2019-03-27T09:08:53.928Z,45.00
2019-03-27T09:09:53.890Z,45.00
2019-03-27T09:10:54.153Z,45.00
2019-03-27T09:11:53.894Z,45.00
2019-03-27T09:12:53.857Z,45.00
2019-03-27T09:13:53.843Z,50.62
2019-03-27T09:14:53.830Z,50.62
2019-03-27T09:15:53.867Z,50.62
2019-03-27T09:16:53.889Z,56.25
2019-03-27T09:17:53.865Z,50.62
2019-03-27T09:18:53.823Z,50.62
2019-03-27T09:19:53.781Z,61.88
2019-03-27T09:20:54.159Z,61.88
2019-03-27T09:21:53.787Z,56.25
2019-03-27T09:22:53.823Z,50.62
2019-03-27T09:23:53.739Z,50.62
2019-03-27T09:24:53.742Z,56.25
2019-03-27T09:25:53.734Z,50.62
2019-03-27T09:26:53.834Z,56.25
2019-03-27T09:27:53.715Z,56.25
2019-03-27T09:28:53.701Z,56.25
2019-03-27T09:29:53.692Z,61.88
2019-03-27T09:30:53.688Z,61.88
2019-03-27T09:31:53.896Z,67.50
2019-03-27T09:32:53.658Z,61.88
2019-03-27T09:33:53.623Z,61.88
2019-03-27T09:34:53.610Z,67.50
2019-03-27T09:35:53.635Z,67.50
2019-03-27T09:36:53.614Z,78.75
2019-03-27T09:37:53.604Z,78.75
2019-03-27T09:38:53.593Z,73.12
2019-03-27T09:39:53.571Z,67.50
2019-03-27T09:40:53.573Z,67.50
2019-03-27T09:41:53.560Z,73.12
2019-03-27T09:42:53.610Z,73.12
2019-03-27T09:43:53.555Z,67.50
2019-03-27T09:44:53.552Z,67.50
2019-03-27T09:45:53.505Z,73.12
2019-03-27T09:46:53.535Z,67.50
2019-03-27T09:47:53.496Z,56.25
2019-03-27T09:48:53.531Z,61.88
2019-03-27T09:49:53.450Z,61.88
2019-03-27T09:50:53.439Z,56.25
2019-03-27T09:51:53.464Z,56.25
2019-03-27T09:52:53.435Z,50.62
2019-03-27T09:53:53.466Z,50.62
2019-03-27T09:54:53.385Z,56.25
2019-03-27T09:55:53.375Z,56.25
2019-03-27T09:56:53.466Z,56.25
2019-03-27T09:57:53.382Z,56.25
2019-03-27T09:58:53.378Z,61.88
2019-03-27T09:59:53.331Z,56.25
2019-03-27T10:00:53.379Z,56.25
2019-03-27T10:01:53.320Z,50.62
2019-03-27T10:02:53.321Z,50.62
2019-03-27T10:03:53.299Z,50.62
2019-03-27T10:04:55.849Z,50.62
2019-03-27T10:05:53.266Z,50.62
2019-03-27T10:06:53.283Z,50.62
2019-03-27T10:07:53.305Z,50.62
2019-03-27T10:08:53.241Z,56.25
2019-03-27T10:09:53.220Z,56.25
2019-03-27T10:10:53.215Z,61.88
2019-03-27T10:11:53.253Z,61.88
2019-03-27T10:12:53.186Z,56.25
2019-03-27T10:13:53.253Z,56.25
2019-03-27T10:14:53.170Z,50.62
2019-03-27T10:15:53.185Z,45.00
2019-03-27T10:16:53.197Z,39.38
2019-03-27T10:17:53.180Z,39.38
2019-03-27T10:18:53.127Z,39.38
2019-03-27T10:20:03.379Z,45.00
2019-03-27T10:20:54.122Z,45.00
2019-03-27T10:21:53.151Z,50.62
2019-03-27T10:22:53.099Z,56.25
2019-03-27T10:23:53.090Z,56.25
2019-03-27T10:24:53.111Z,61.88
2019-03-27T10:25:53.070Z,61.88
2019-03-27T10:26:53.081Z,67.50
2019-03-27T10:27:53.051Z,73.12
2019-03-27T10:28:53.052Z,78.75
2019-03-27T10:29:53.027Z,78.75
2019-03-27T10:30:52.998Z,84.38
2019-03-27T10:31:53.029Z,84.38
2019-03-27T10:32:52.968Z,84.38
2019-03-27T10:33:52.954Z,84.38
2019-03-27T10:34:53.021Z,78.75
2019-03-27T10:35:52.979Z,78.75
2019-03-27T10:36:52.983Z,84.38
2019-03-27T10:37:52.931Z,84.38
2019-03-27T10:38:52.927Z,84.38
2019-03-27T10:39:52.901Z,78.75
2019-03-27T10:40:52.889Z,73.12
2019-03-27T10:41:52.912Z,67.50
2019-03-27T10:42:52.882Z,61.88
2019-03-27T10:43:53.006Z,56.25
2019-03-27T10:44:52.877Z,56.25
2019-03-27T10:45:52.818Z,50.62
2019-03-27T10:46:52.840Z,50.62
2019-03-27T10:47:52.839Z,56.25
2019-03-27T10:48:53.261Z,61.88
2019-03-27T10:49:52.813Z,67.50
2019-03-27T10:50:52.785Z,73.12
2019-03-27T10:51:52.781Z,78.75
2019-03-27T10:52:52.765Z,78.75
2019-03-27T10:53:52.746Z,78.75
2019-03-27T10:54:52.723Z,84.38
2019-03-27T10:55:52.727Z,84.38
2019-03-27T10:56:52.702Z,84.38
2019-03-27T10:57:52.719Z,84.38
2019-03-27T10:58:52.681Z,84.38
2019-03-27T10:59:52.667Z,84.38
2019-03-27T11:00:52.657Z,84.38
2019-03-27T11:01:52.693Z,84.38
2019-03-27T11:02:52.707Z,84.38
2019-03-27T11:03:52.641Z,78.75
2019-03-27T11:04:52.606Z,78.75
2019-03-27T11:05:52.621Z,78.75
2019-03-27T11:06:52.644Z,78.75
2019-03-27T11:07:52.656Z,73.12
2019-03-27T11:08:52.586Z,73.12
2019-03-27T11:09:52.577Z,73.12
2019-03-27T11:10:52.618Z,73.12
2019-03-27T11:11:52.548Z,73.12
2019-03-27T11:12:52.537Z,73.12
2019-03-27T11:13:52.534Z,73.12
2019-03-27T11:14:52.501Z,67.50
2019-03-27T11:15:52.487Z,73.12
2019-03-27T11:16:52.480Z,73.12
2019-03-27T11:17:52.511Z,73.12
2019-03-27T11:18:52.471Z,78.75
2019-03-27T11:19:52.447Z,78.75
2019-03-27T11:20:52.457Z,78.75
2019-03-27T11:21:52.507Z,78.75
2019-03-27T11:22:52.432Z,78.75
2019-03-27T11:23:52.467Z,78.75
2019-03-27T11:24:52.386Z,78.75
2019-03-27T11:25:52.434Z,73.12
2019-03-27T11:26:52.416Z,67.50
2019-03-27T11:27:52.379Z,67.50
2019-03-27T11:28:52.349Z,67.50
2019-03-27T11:29:52.374Z,67.50
2019-03-27T11:30:52.319Z,67.50
2019-03-27T11:31:52.312Z,61.88
2019-03-27T11:32:52.359Z,61.88
2019-03-27T11:33:52.304Z,61.88
2019-03-27T11:34:52.323Z,61.88
2019-03-27T11:35:52.265Z,61.88
2019-03-27T11:36:52.273Z,67.50
2019-03-27T11:37:52.323Z,61.88
2019-03-27T11:38:52.231Z,61.88
2019-03-27T11:39:52.219Z,56.25
2019-03-27T11:40:52.235Z,61.88
2019-03-27T11:41:52.207Z,61.88
2019-03-27T11:42:52.214Z,61.88
2019-03-27T11:43:54.943Z,61.88
2019-03-27T11:44:52.167Z,67.50
2019-03-27T11:45:52.153Z,67.50
2019-03-27T11:46:52.164Z,73.12
2019-03-27T11:47:52.160Z,78.75
2019-03-27T11:48:52.125Z,78.75
2019-03-27T11:49:52.126Z,78.75
2019-03-27T11:50:52.107Z,78.75
2019-03-27T11:51:52.097Z,78.75
2019-03-27T11:52:52.127Z,78.75
2019-03-27T11:53:52.074Z,78.75
2019-03-27T11:54:52.101Z,73.12
2019-03-27T11:55:52.046Z,73.12
2019-03-27T11:56:52.037Z,73.12
2019-03-27T11:57:52.073Z,78.75
2019-03-27T11:58:52.037Z,78.75
2019-03-27T11:59:54.198Z,84.38
2019-03-27T12:00:54.786Z,84.38
2019-03-27T12:01:51.980Z,84.38
2019-03-27T12:02:51.996Z,84.38
2019-03-27T12:03:51.981Z,84.38
2019-03-27T12:04:51.980Z,84.38
2019-03-27T12:05:51.959Z,84.38
2019-03-27T12:06:51.925Z,78.75
2019-03-27T12:07:51.982Z,78.75
2019-03-27T12:08:51.926Z,67.50
2019-03-27T12:09:51.920Z,67.50
2019-03-27T12:10:51.889Z,61.88
2019-03-27T12:11:51.913Z,61.88
2019-03-27T12:12:51.926Z,61.88
2019-03-27T12:13:51.853Z,61.88
2019-03-27T12:14:51.858Z,61.88
2019-03-27T12:15:51.886Z,61.88
2019-03-27T12:16:51.855Z,61.88
2019-03-27T12:17:51.832Z,67.50
2019-03-27T12:18:51.801Z,67.50
2019-03-27T12:19:51.784Z,67.50
2019-03-27T12:20:59.105Z,67.50
2019-03-27T12:21:54.789Z,67.50
2019-03-27T12:22:57.667Z,67.50
2019-03-27T12:23:52.762Z,67.50
2019-03-27T12:24:51.735Z,78.75
2019-03-27T12:25:54.956Z,78.75
2019-03-27T12:26:51.726Z,78.75
2019-03-27T12:27:51.802Z,78.75
2019-03-27T12:28:51.691Z,84.38
2019-03-27T12:29:51.684Z,84.38
2019-03-27T12:30:51.690Z,84.38
2019-03-27T12:31:51.653Z,78.75
2019-03-27T12:32:51.721Z,84.38
2019-03-27T12:33:51.667Z,84.38
2019-03-27T12:34:51.645Z,84.38
2019-03-27T12:35:51.648Z,78.75
2019-03-27T12:36:51.599Z,78.75
2019-03-27T12:37:51.616Z,73.12
2019-03-27T12:38:51.621Z,73.12
2019-03-27T12:39:51.564Z,73.12
2019-03-27T12:40:51.602Z,73.12
2019-03-27T12:41:51.596Z,73.12
2019-03-27T12:42:51.554Z,73.12
2019-03-27T12:43:51.575Z,73.12
2019-03-27T12:44:51.538Z,73.12
2019-03-27T12:45:51.515Z,73.12
2019-03-27T12:46:52.054Z,73.12
2019-03-27T12:47:51.470Z,78.75
2019-03-27T12:48:51.464Z,78.75
2019-03-27T12:49:52.040Z,78.75
2019-03-27T12:50:51.469Z,78.75
2019-03-27T12:51:51.465Z,78.75
2019-03-27T12:52:51.443Z,78.75
2019-03-27T12:53:51.406Z,78.75
2019-03-27T12:54:51.393Z,78.75
2019-03-27T12:55:51.384Z,73.12
2019-03-27T12:56:51.433Z,73.12
2019-03-27T12:57:51.363Z,78.75
2019-03-27T12:58:51.445Z,78.75
2019-03-27T12:59:51.365Z,78.75
2019-03-27T13:00:51.334Z,73.12
2019-03-27T13:01:51.366Z,73.12
2019-03-27T13:02:51.306Z,73.12
2019-03-27T13:03:51.362Z,73.12
2019-03-27T13:04:51.325Z,73.12
2019-03-27T13:05:51.290Z,73.12
2019-03-27T13:06:51.266Z,78.75
2019-03-27T13:07:51.298Z,73.12
2019-03-27T13:08:51.264Z,73.12
2019-03-27T13:09:51.227Z,73.12
2019-03-27T13:10:51.229Z,73.12
2019-03-27T13:11:51.211Z,73.12
2019-03-27T13:12:51.233Z,73.12
2019-03-27T13:13:51.221Z,73.12